createdAt,value
2023-05-15T00:03:55.582Z,14.23
2023-05-15T00:08:57.881Z,14.50
2023-05-15T00:14:00.171Z,14.49
2023-05-15T00:19:02.815Z,14.19
2023-05-15T00:24:05.246Z,14.27
2023-05-15T00:29:07.494Z,14.46
2023-05-15T00:34:09.752Z,14.45
2023-05-15T00:39:13.088Z,13.84
2023-05-15T00:44:19.274Z,14.21
2023-05-15T00:49:23.089Z,14.28
2023-05-15T00:54:25.779Z,14.59
2023-05-15T00:59:32.416Z,14.47
2023-05-15T01:04:34.794Z,14.42
2023-05-15T01:09:39.335Z,14.29
2023-05-15T01:14:41.682Z,13.93
2023-05-15T01:19:45.158Z,13.95
2023-05-15T01:25:45.818Z,14.29
2023-05-15T01:30:50.342Z,14.36
2023-05-15T01:36:08.504Z,14.62
2023-05-15T01:41:33.573Z,14.25
2023-05-15T01:46:39.920Z,14.06
2023-05-15T01:51:45.148Z,13.63
2023-05-15T01:56:47.631Z,13.02
2023-05-15T02:01:52.112Z,12.76
2023-05-15T02:06:55.726Z,12.56
2023-05-15T02:11:58.754Z,12.87
2023-05-15T02:17:01.128Z,12.91
2023-05-15T02:22:03.790Z,12.71
2023-05-15T02:27:23.127Z,12.53
2023-05-15T02:32:48.153Z,12.69
2023-05-15T02:37:55.297Z,13.31
2023-05-15T02:42:58.363Z,14.02
2023-05-15T02:48:02.606Z,13.89
2023-05-15T02:53:07.380Z,13.96
2023-05-15T02:58:10.149Z,12.60
2023-05-15T03:03:12.373Z,13.23
2023-05-15T03:08:16.190Z,13.25
2023-05-15T03:13:18.403Z,13.76
2023-05-15T03:18:20.875Z,14.16
2023-05-15T03:23:23.249Z,14.15
2023-05-15T03:28:25.726Z,13.66
2023-05-15T03:33:28.006Z,13.65
2023-05-15T03:38:30.256Z,13.76
2023-05-15T03:43:32.435Z,13.50
2023-05-15T03:48:34.658Z,12.66
2023-05-15T03:53:41.234Z,12.81
2023-05-15T03:58:43.576Z,13.22
2023-05-15T04:03:45.798Z,12.04
2023-05-15T04:08:47.960Z,11.82
2023-05-15T04:13:50.289Z,12.04
2023-05-15T04:18:52.544Z,13.19
2023-05-15T04:23:54.687Z,13.14
2023-05-15T04:29:04.076Z,12.67
2023-05-15T04:34:07.161Z,12.32
2023-05-15T04:39:09.410Z,12.69
2023-05-15T04:44:11.696Z,13.24
2023-05-15T04:49:13.865Z,13.46
2023-05-15T04:54:16.115Z,13.70
2023-05-15T04:59:18.307Z,13.66
2023-05-15T05:04:20.677Z,13.51
2023-05-15T05:09:22.795Z,13.50
2023-05-15T05:14:24.898Z,13.70
2023-05-15T05:19:28.249Z,14.12
2023-05-15T05:24:31.123Z,14.26
2023-05-15T05:29:33.562Z,14.01
2023-05-15T05:34:36.036Z,14.05
2023-05-15T05:39:38.184Z,13.75
2023-05-15T05:44:40.483Z,13.90
2023-05-15T05:49:42.834Z,13.85
2023-05-15T05:54:46.512Z,14.11
2023-05-15T05:59:49.947Z,13.97
2023-05-15T06:04:52.501Z,13.80
2023-05-15T06:09:54.832Z,14.10
2023-05-15T06:14:56.966Z,14.18
2023-05-15T06:19:59.224Z,14.36
2023-05-15T06:25:04.959Z,14.07
2023-05-15T06:30:08.920Z,14.70
2023-05-15T06:35:11.345Z,14.20
2023-05-15T06:40:13.661Z,14.15
2023-05-15T06:45:15.969Z,14.42
2023-05-15T06:50:18.192Z,14.42
2023-05-15T06:55:20.643Z,14.16
2023-05-15T07:00:23.078Z,14.27
2023-05-15T07:05:25.445Z,14.58
2023-05-15T07:10:28.051Z,14.94
2023-05-15T07:15:30.518Z,14.59
2023-05-15T07:20:34.377Z,14.75
2023-05-15T07:25:38.432Z,14.73
2023-05-15T07:30:41.078Z,15.11
2023-05-15T07:35:43.464Z,15.24
2023-05-15T07:40:45.709Z,15.31
2023-05-15T07:45:48.142Z,15.64
2023-05-15T07:50:52.401Z,16.01
2023-05-15T07:55:54.570Z,15.77
2023-05-15T08:00:56.686Z,15.98
2023-05-15T08:05:59.789Z,15.84
2023-05-15T08:11:01.967Z,15.32
2023-05-15T08:16:04.656Z,15.74
2023-05-15T08:21:07.444Z,15.88
2023-05-15T08:26:09.680Z,15.57
2023-05-15T08:31:11.943Z,16.03
2023-05-15T08:36:14.346Z,15.95
2023-05-15T08:41:39.946Z,16.25
2023-05-15T08:46:43.927Z,16.56
2023-05-15T08:51:48.175Z,16.28
2023-05-15T08:56:50.926Z,16.63
2023-05-15T09:01:53.870Z,16.81
2023-05-15T09:06:59.066Z,17.02
2023-05-15T09:12:02.531Z,16.44
2023-05-15T09:17:04.961Z,16.94
2023-05-15T09:22:18.558Z,17.22
2023-05-15T09:27:21.194Z,17.25
2023-05-15T09:32:26.474Z,17.45
2023-05-15T09:37:32.305Z,17.26
2023-05-15T09:42:36.696Z,17.17
2023-05-15T09:47:39.215Z,17.42
2023-05-15T09:52:41.695Z,17.67
2023-05-15T09:57:44.267Z,17.62
2023-05-15T10:02:47.075Z,17.65
2023-05-15T10:07:55.216Z,18.13
2023-05-15T10:13:03.625Z,18.74
2023-05-15T10:18:06.849Z,18.63
2023-05-15T10:23:11.129Z,18.80
2023-05-15T10:28:13.319Z,19.67
2023-05-15T10:33:16.348Z,20.32
2023-05-15T10:38:20.683Z,20.47
2023-05-15T10:43:23.966Z,20.20
2023-05-15T10:48:26.903Z,20.51
2023-05-15T10:53:29.310Z,20.57
2023-05-15T10:58:31.617Z,21.08
2023-05-15T11:03:48.849Z,21.18
2023-05-15T11:08:51.950Z,21.18
2023-05-15T11:14:06.294Z,21.51
2023-05-15T11:19:25.669Z,21.63
2023-05-15T11:24:30.743Z,22.06
2023-05-15T11:29:33.039Z,20.27
2023-05-15T11:34:38.094Z,22.11
2023-05-15T11:39:40.440Z,21.31
2023-05-15T11:44:42.747Z,21.57
2023-05-15T11:49:45.208Z,20.95
2023-05-15T11:54:48.139Z,22.61
2023-05-15T11:59:55.682Z,22.58
2023-05-15T12:04:57.958Z,23.44
2023-05-15T12:10:00.238Z,22.92
2023-05-15T12:15:02.653Z,21.97
2023-05-15T12:20:08.934Z,22.85
2023-05-15T12:25:14.638Z,21.31
2023-05-15T12:30:17.558Z,22.98
2023-05-15T12:35:19.847Z,21.75
2023-05-15T12:40:22.996Z,20.91
2023-05-15T12:45:26.600Z,19.88
2023-05-15T12:50:30.869Z,19.41
2023-05-15T12:55:36.244Z,18.91
2023-05-15T13:00:46.234Z,18.83
2023-05-15T13:05:48.763Z,19.15
2023-05-15T13:10:58.614Z,19.34
2023-05-15T13:16:00.892Z,19.67
2023-05-15T13:21:03.310Z,19.81
2023-05-15T13:26:05.752Z,19.79
2023-05-15T13:31:08.094Z,19.25
2023-05-15T13:41:30.483Z,19.34
2023-05-15T13:46:32.718Z,19.73
2023-05-15T13:51:35.010Z,19.95
2023-05-15T13:56:37.259Z,20.34
2023-05-15T14:01:39.499Z,20.47
2023-05-15T14:06:41.860Z,20.93
2023-05-15T14:11:44.086Z,21.06
2023-05-15T14:16:46.432Z,20.82
2023-05-15T14:21:49.721Z,20.87
2023-05-15T14:26:51.977Z,20.75
2023-05-15T14:31:54.302Z,20.94
2023-05-15T14:36:56.587Z,21.09
2023-05-15T14:41:58.970Z,21.05
2023-05-15T14:47:10.464Z,21.24
2023-05-15T14:52:12.817Z,20.85
2023-05-15T14:57:20.410Z,21.36
2023-05-15T15:02:22.823Z,21.49
2023-05-15T15:07:33.012Z,21.23
2023-05-15T15:12:35.277Z,21.15
2023-05-15T15:17:37.702Z,20.59
2023-05-15T15:22:40.229Z,20.80
2023-05-15T15:27:42.719Z,20.52
2023-05-15T15:32:45.659Z,20.12
2023-05-15T15:37:47.966Z,19.90
2023-05-15T15:42:50.286Z,19.94
2023-05-15T15:47:52.578Z,20.06
2023-05-15T15:52:54.840Z,19.57
2023-05-15T15:57:57.087Z,19.74
2023-05-15T16:02:59.373Z,20.02
2023-05-15T16:08:01.668Z,20.03
2023-05-15T16:13:03.846Z,18.94
2023-05-15T16:18:06.121Z,19.70
2023-05-15T16:23:09.597Z,20.13
2023-05-15T16:28:12.170Z,19.16
2023-05-15T16:33:14.496Z,19.33
2023-05-15T16:38:18.208Z,19.89
2023-05-15T16:43:21.981Z,19.05
2023-05-15T16:48:26.381Z,19.91
2023-05-15T16:53:29.707Z,19.37
2023-05-15T16:58:32.208Z,19.03
2023-05-15T17:03:34.453Z,18.98
2023-05-15T17:08:36.779Z,18.88
2023-05-15T17:13:39.341Z,18.63
2023-05-15T17:18:41.467Z,18.45
2023-05-15T17:23:43.687Z,18.63
2023-05-15T17:28:46.038Z,18.53
2023-05-15T17:33:48.464Z,18.48
2023-05-15T17:38:50.718Z,18.38
2023-05-15T17:43:52.978Z,18.39
2023-05-15T17:48:55.185Z,17.34
2023-05-15T17:53:57.289Z,17.80
2023-05-15T17:59:00.257Z,17.66
2023-05-15T18:04:02.749Z,18.46
2023-05-15T18:09:05.346Z,17.94
2023-05-15T18:14:07.595Z,17.81
2023-05-15T18:19:09.896Z,17.73
2023-05-15T18:24:12.257Z,17.51
2023-05-15T18:29:14.462Z,17.65
2023-05-15T18:34:16.697Z,17.40
2023-05-15T18:39:19.661Z,17.24
2023-05-15T18:44:21.893Z,17.26
2023-05-15T18:49:24.137Z,16.93
2023-05-15T18:54:27.396Z,17.00
2023-05-15T18:59:29.688Z,16.75
2023-05-15T19:04:32.008Z,16.84
2023-05-15T19:09:34.158Z,16.52
2023-05-15T19:14:36.275Z,16.53
2023-05-15T19:19:38.386Z,16.26
2023-05-15T19:24:41.079Z,16.25
2023-05-15T19:29:43.246Z,16.34
2023-05-15T19:34:46.306Z,16.20
2023-05-15T19:39:48.525Z,16.18
2023-05-15T19:44:51.475Z,16.06
2023-05-15T19:49:53.809Z,16.22
2023-05-15T19:54:56.037Z,16.20
2023-05-15T19:59:58.208Z,16.04
2023-05-15T20:05:00.556Z,16.18
2023-05-15T20:10:02.832Z,16.06
2023-05-15T20:15:06.837Z,16.04
2023-05-15T20:20:13.200Z,16.10
2023-05-15T20:25:15.818Z,16.11
2023-05-15T20:30:18.101Z,16.00
2023-05-15T20:35:20.843Z,16.29
2023-05-15T20:40:25.762Z,16.17
2023-05-15T20:45:28.309Z,16.28
2023-05-15T20:50:30.549Z,16.48
2023-05-15T20:55:32.682Z,16.26
2023-05-15T21:00:34.915Z,16.41
2023-05-15T21:05:37.133Z,16.34
2023-05-15T21:10:39.397Z,16.02
2023-05-15T21:15:42.005Z,16.27
2023-05-15T21:20:44.155Z,16.05
2023-05-15T21:25:46.423Z,15.87
2023-05-15T21:30:48.683Z,15.16
2023-05-15T21:35:51.598Z,14.85
2023-05-15T21:40:54.256Z,15.30
2023-05-15T21:45:57.028Z,15.99
2023-05-15T21:50:59.168Z,15.27
2023-05-15T21:56:02.647Z,14.68
2023-05-15T22:01:05.095Z,14.67
2023-05-15T22:06:07.712Z,14.90
2023-05-15T22:11:09.979Z,14.75
2023-05-15T22:16:12.382Z,14.47
2023-05-15T22:21:15.429Z,14.52
2023-05-15T22:26:19.198Z,14.53
2023-05-15T22:31:23.436Z,15.10
2023-05-15T22:36:25.778Z,15.03
2023-05-15T22:41:28.214Z,14.46
2023-05-15T22:46:30.703Z,14.96
2023-05-15T22:51:33.828Z,14.57
2023-05-15T22:56:36.493Z,14.22
2023-05-15T23:01:38.849Z,14.51
2023-05-15T23:06:41.453Z,15.41
2023-05-15T23:11:43.845Z,14.79
2023-05-15T23:16:46.378Z,15.63
2023-05-15T23:21:48.890Z,15.07
2023-05-15T23:26:51.585Z,14.54
2023-05-15T23:31:57.109Z,14.46
2023-05-15T23:36:59.391Z,14.58
2023-05-15T23:42:01.719Z,14.69
2023-05-15T23:47:04.607Z,14.54
2023-05-15T23:52:07.837Z,14.39
2023-05-15T23:57:10.187Z,14.87
